Time;durP1;ratioP1;P1;durP2;ratioP2;P2;SDS_P1;SDS_P2;PMS_P1;PMS_P2;Temp;Humidity;BMP_temperature;BMP_pressure;BME280_temperature;BME280_humidity;BME280_pressure;Samples;Min_cycle;Max_cycle;Signal;HPM_P1;HPM_P2
2023/03/10 00:01:11;;;;;;;;;;;;;;;26.24;26.65;99784.56;5068106;28;1046;-18
2023/03/10 00:03:36;;;;;;;;;;;;;;;26.11;26.58;99787.22;5082566;28;1282;-18
2023/03/10 00:06:02;;;;;;;;;;;;;;;26.16;26.76;99793.66;5078215;28;1906;-18
2023/03/10 00:08:27;;;;;;;;;;;;;;;26.31;26.23;99786.50;5065357;28;920;-18
2023/03/10 00:10:53;;;;;;;;;;;;;;;26.38;26.60;99798.16;5071017;28;1269;-18
2023/03/10 00:13:19;;;;;;;;;;;;;;;26.41;26.46;99806.66;5081594;28;1062;-19
2023/03/10 00:15:44;;;;;;;;;;;;;;;26.22;26.80;99807.38;5077549;28;1115;-18
2023/03/10 00:18:11;;;;;;;;;;;;;;;26.13;26.79;99801.31;5077714;28;1057;-18
2023/03/10 00:20:36;;;;;;;;;;;;;;;26.43;26.44;99802.94;5079544;28;1090;-18
2023/03/10 00:23:02;;;;;;;;;;;;;;;26.37;26.53;99791.09;5055216;28;1066;-18
2023/03/10 00:25:27;;;;;;;;;;;;;;;26.38;26.27;99792.75;5077753;28;1983;-18
2023/03/10 00:27:53;;;;;;;;;;;;;;;26.23;26.80;99796.41;5077450;28;1209;-18
2023/03/10 00:30:21;;;;;;;;;;;;;;;26.21;26.67;99794.94;5060408;28;1129;-18
2023/03/10 00:32:46;;;;;;;;;;;;;;;26.21;26.75;99811.94;5063450;28;1062;-18
2023/03/10 00:35:12;;;;;;;;;;;;;;;26.42;26.67;99810.22;5077280;28;1166;-18
2023/03/10 00:37:38;;;;;;;;;;;;;;;26.72;26.34;99806.34;5077003;28;1070;-19
2023/03/10 00:40:09;;;;;;;;;;;;;;;26.97;25.65;99808.50;5077636;28;1174;-19
2023/03/10 00:42:35;;;;;;;;;;;;;;;26.74;26.22;99807.81;5079088;28;1200;-19
2023/03/10 00:45:00;;;;;;;;;;;;;;;26.65;26.10;99812.56;5060019;28;2314;-19
2023/03/10 00:47:26;;;;;;;;;;;;;;;26.61;26.34;99810.50;5072130;28;1091;-18
2023/03/10 00:49:53;;;;;;;;;;;;;;;26.31;26.85;99826.94;5033081;28;1135;-19
2023/03/10 00:52:18;;;;;;;;;;;;;;;26.35;27.05;99812.88;5059018;28;1428;-18
2023/03/10 00:54:44;;;;;;;;;;;;;;;26.27;26.97;99813.84;5079255;28;1130;-18
2023/03/10 00:57:10;;;;;;;;;;;;;;;26.22;27.02;99821.72;5067535;28;1181;-18
2023/03/10 00:59:35;;;;;;;;;;;;;;;26.18;27.21;99825.81;5077049;28;1186;-18
2023/03/10 01:02:01;;;;;;;;;;;;;;;26.14;27.17;99830.75;5059183;28;1393;-18
2023/03/10 01:04:29;;;;;;;;;;;;;;;26.06;27.07;99833.63;5059013;28;1906;-18
2023/03/10 01:06:54;;;;;;;;;;;;;;;25.94;27.64;99830.69;5072844;28;1011;-18
2023/03/10 01:09:20;;;;;;;;;;;;;;;25.87;27.75;99838.72;5049309;28;1191;-19
2023/03/10 01:11:46;;;;;;;;;;;;;;;26.15;27.45;99847.78;5076970;28;1164;-19
2023/03/10 01:14:12;;;;;;;;;;;;;;;26.27;26.94;99845.38;5076859;28;1106;-19
2023/03/10 01:16:38;;;;;;;;;;;;;;;26.65;26.46;99850.34;5058832;28;1305;-18
2023/03/10 01:19:03;;;;;;;;;;;;;;;26.97;25.83;99843.56;5080323;28;1105;-19
2023/03/10 01:21:31;;;;;;;;;;;;;;;26.69;26.67;99841.84;5079179;28;1105;-18
2023/03/10 01:23:57;;;;;;;;;;;;;;;26.72;26.25;99836.88;5059175;28;1541;-18
2023/03/10 01:26:23;;;;;;;;;;;;;;;26.76;26.50;99830.03;5076374;28;1141;-19
2023/03/10 01:28:49;;;;;;;;;;;;;;;26.47;26.78;99825.78;5058539;28;1115;-19
2023/03/10 01:31:15;;;;;;;;;;;;;;;26.28;27.15;99811.97;5059429;28;1217;-18
2023/03/10 01:33:41;;;;;;;;;;;;;;;26.37;27.19;99813.50;5076646;28;1035;-19
2023/03/10 01:36:10;;;;;;;;;;;;;;;26.16;27.31;99806.31;5076065;28;1002;-19
2023/03/10 01:38:36;;;;;;;;;;;;;;;26.03;27.38;99813.31;5076482;28;1151;-19
2023/03/10 01:41:02;;;;;;;;;;;;;;;25.98;27.64;99815.75;5076579;28;1165;-19
2023/03/10 01:43:28;;;;;;;;;;;;;;;25.94;27.67;99824.44;5081185;28;1230;-18
2023/03/10 01:45:54;;;;;;;;;;;;;;;25.87;27.73;99824.41;5082989;28;1914;-19
2023/03/10 01:48:19;;;;;;;;;;;;;;;25.90;27.63;99829.38;5066666;28;1193;-19
2023/03/10 01:50:47;;;;;;;;;;;;;;;26.07;27.55;99818.28;5057825;28;2011;-18
2023/03/10 01:53:13;;;;;;;;;;;;;;;26.36;27.21;99838.78;5058719;28;1218;-19
2023/03/10 01:55:40;;;;;;;;;;;;;;;26.68;26.58;99845.56;5057525;28;1154;-19
2023/03/10 01:58:06;;;;;;;;;;;;;;;27.02;26.29;99844.66;5048432;28;1151;-19
2023/03/10 02:00:32;;;;;;;;;;;;;;;26.59;26.93;99847.63;5058371;28;1342;-18
2023/03/10 02:03:13;;;;;;;;;;;;;;;27.05;26.43;99848.81;5058304;28;1266;-18
2023/03/10 02:05:55;;;;;;;;;;;;;;;27.14;25.98;99852.16;5058267;28;1910;-19
2023/03/10 02:08:21;;;;;;;;;;;;;;;26.59;27.09;99861.91;5067322;28;1075;-18
2023/03/10 02:10:46;;;;;;;;;;;;;;;26.90;26.56;99870.53;5022076;28;1120;-19
2023/03/10 02:13:12;;;;;;;;;;;;;;;27.04;26.48;99857.13;5038938;28;1156;-18
2023/03/10 02:15:38;;;;;;;;;;;;;;;27.21;25.92;99862.97;5058313;28;1059;-19
2023/03/10 02:18:04;;;;;;;;;;;;;;;26.68;26.58;99859.88;5078678;28;1229;-18
2023/03/10 02:20:38;;;;;;;;;;;;;;;27.04;26.48;99870.63;5057080;28;1401;-18
2023/03/10 02:23:03;;;;;;;;;;;;;;;27.13;26.00;99856.72;5060308;28;1233;-18
2023/03/10 02:25:32;;;;;;;;;;;;;;;26.98;26.52;99864.97;5051932;28;1906;-19
2023/03/10 02:27:58;;;;;;;;;;;;;;;26.73;26.61;99862.81;5061877;28;1071;-19
2023/03/10 02:30:23;;;;;;;;;;;;;;;26.88;26.96;99867.22;5061600;28;1077;-18
2023/03/10 02:32:50;;;;;;;;;;;;;;;27.07;26.71;99871.03;5072135;28;1304;-18
2023/03/10 02:35:16;;;;;;;;;;;;;;;27.28;26.14;99871.91;5079920;28;1043;-19
2023/03/10 02:37:50;;;;;;;;;;;;;;;26.82;26.58;99874.25;5061713;28;1260;-19
2023/03/10 02:40:28;;;;;;;;;;;;;;;27.08;26.49;99871.84;5061450;28;2048;-18
2023/03/10 02:42:54;;;;;;;;;;;;;;;27.18;26.53;99879.56;5061390;28;1235;-18
2023/03/10 02:45:20;;;;;;;;;;;;;;;27.12;26.41;99883.91;5052657;28;1918;-19
2023/03/10 02:47:45;;;;;;;;;;;;;;;26.88;26.67;99886.94;5055357;28;1126;-19
2023/03/10 02:50:11;;;;;;;;;;;;;;;26.95;26.69;99884.25;5072183;28;1019;-19
2023/03/10 02:52:39;;;;;;;;;;;;;;;26.52;27.06;99877.25;5061310;28;1452;-18
2023/03/10 02:55:04;;;;;;;;;;;;;;;26.42;27.20;99874.94;5061779;28;1615;-19
2023/03/10 02:57:30;;;;;;;;;;;;;;;26.48;27.28;99873.28;5090591;28;1110;-19
2023/03/10 02:59:56;;;;;;;;;;;;;;;26.48;27.36;99882.22;5092311;28;1155;-18
2023/03/10 03:02:22;;;;;;;;;;;;;;;26.42;27.27;99872.22;5079821;28;1186;-18
2023/03/10 03:04:47;;;;;;;;;;;;;;;26.33;27.42;99885.03;5079189;28;1902;-18
2023/03/10 03:07:13;;;;;;;;;;;;;;;26.26;27.63;99887.66;5061272;28;1331;-18
2023/03/10 03:09:39;;;;;;;;;;;;;;;26.23;27.67;99879.13;5084219;28;879;-18
2023/03/10 03:12:04;;;;;;;;;;;;;;;26.23;28.07;99884.53;5061094;28;1189;-18
2023/03/10 03:14:30;;;;;;;;;;;;;;;26.20;27.84;99880.38;5061317;28;1157;-19
2023/03/10 03:16:56;;;;;;;;;;;;;;;26.21;27.99;99894.69;5079012;28;959;-19
2023/03/10 03:19:22;;;;;;;;;;;;;;;26.15;27.91;99893.59;5060737;28;1222;-19
2023/03/10 03:21:48;;;;;;;;;;;;;;;26.04;28.36;99897.69;5073732;28;1374;-18
2023/03/10 03:24:19;;;;;;;;;;;;;;;26.13;28.21;99893.81;5060697;28;1976;-18
2023/03/10 03:26:45;;;;;;;;;;;;;;;26.00;28.58;99896.41;5061008;28;1161;-19
2023/03/10 03:29:16;;;;;;;;;;;;;;;25.98;28.40;99888.53;5060359;28;1252;-19
2023/03/10 03:31:42;;;;;;;;;;;;;;;26.27;27.71;99886.66;5060526;28;1336;-19
2023/03/10 03:34:14;;;;;;;;;;;;;;;26.54;27.47;99894.06;5060456;28;1209;-19
2023/03/10 03:36:40;;;;;;;;;;;;;;;26.85;27.08;99903.53;5060904;28;1357;-19
2023/03/10 03:39:08;;;;;;;;;;;;;;;26.93;26.76;99898.97;5060866;28;1233;-19
2023/03/10 03:41:36;;;;;;;;;;;;;;;26.70;27.33;99911.78;5060024;28;1464;-19
2023/03/10 03:44:02;;;;;;;;;;;;;;;26.82;27.20;99898.56;5060514;28;1448;-19
2023/03/10 03:46:29;;;;;;;;;;;;;;;27.02;26.93;99917.53;5060758;28;1339;-19
2023/03/10 03:48:56;;;;;;;;;;;;;;;27.04;26.66;99919.19;5060668;28;1150;-18
2023/03/10 03:51:22;;;;;;;;;;;;;;;26.58;27.22;99924.16;5078378;28;1128;-18
2023/03/10 03:53:47;;;;;;;;;;;;;;;26.98;26.75;99923.50;5060445;28;1318;-19
2023/03/10 03:56:13;;;;;;;;;;;;;;;27.17;26.94;99924.63;5063568;28;1249;-18
2023/03/10 03:58:41;;;;;;;;;;;;;;;27.09;26.79;99922.94;5064807;28;1306;-18
2023/03/10 04:01:07;;;;;;;;;;;;;;;26.62;27.21;99918.19;5060341;28;1241;-18
2023/03/10 04:03:39;;;;;;;;;;;;;;;27.08;26.78;99915.88;5060073;28;1201;-18
2023/03/10 04:06:05;;;;;;;;;;;;;;;27.20;26.38;99908.03;5060928;28;1917;-19
2023/03/10 04:08:31;;;;;;;;;;;;;;;27.03;26.60;99904.88;5061944;28;1133;-18
2023/03/10 04:10:56;;;;;;;;;;;;;;;26.81;27.23;99912.25;5077878;28;1098;-19
2023/03/10 04:13:25;;;;;;;;;;;;;;;27.14;27.00;99919.66;5059614;28;1327;-19
2023/03/10 04:15:55;;;;;;;;;;;;;;;27.24;26.67;99930.06;5060116;28;1122;-18
2023/03/10 04:18:21;;;;;;;;;;;;;;;26.39;27.18;99915.78;5059954;28;1275;-18
2023/03/10 04:20:47;;;;;;;;;;;;;;;26.13;27.56;99911.81;5084296;28;1103;-18
2023/03/10 04:23:12;;;;;;;;;;;;;;;25.78;27.75;99916.16;5079969;28;1421;-18
2023/03/10 04:25:40;;;;;;;;;;;;;;;25.86;27.36;99920.53;5059457;28;1975;-18
2023/03/10 04:28:06;;;;;;;;;;;;;;;26.17;26.96;99915.81;5059368;28;1334;-18
2023/03/10 04:30:31;;;;;;;;;;;;;;;26.22;26.87;99910.66;5077606;28;1011;-18
2023/03/10 04:33:00;;;;;;;;;;;;;;;26.37;26.70;99913.28;5060238;28;1231;-18
2023/03/10 04:35:28;;;;;;;;;;;;;;;26.51;26.10;99908.78;5059438;28;1402;-18
2023/03/10 04:37:54;;;;;;;;;;;;;;;26.46;26.02;99900.44;5059673;28;1221;-18
2023/03/10 04:40:22;;;;;;;;;;;;;;;26.06;26.91;99900.19;5043452;28;1190;-18
2023/03/10 04:42:47;;;;;;;;;;;;;;;25.83;27.15;99890.47;5058982;28;1151;-18
2023/03/10 04:45:13;;;;;;;;;;;;;;;25.73;27.48;99883.56;5067821;28;1914;-17
2023/03/10 04:47:41;;;;;;;;;;;;;;;25.56;27.92;99888.34;5052132;28;1138;-17
2023/03/10 04:50:07;;;;;;;;;;;;;;;25.83;27.49;99885.91;5047563;28;1135;-18
2023/03/10 04:52:33;;;;;;;;;;;;;;;26.00;27.50;99881.06;5059554;28;1262;-17
2023/03/10 04:54:58;;;;;;;;;;;;;;;26.12;28.27;99883.22;5059167;28;1150;-18
2023/03/10 04:57:24;;;;;;;;;;;;;;;27.03;26.91;99885.97;5060674;28;1151;-18
2023/03/10 04:59:51;;;;;;;;;;;;;;;27.66;25.82;99893.97;5058918;28;1264;-18
2023/03/10 05:02:17;;;;;;;;;;;;;;;25.19;28.51;99891.13;5059226;28;1159;-18
2023/03/10 05:04:43;;;;;;;;;;;;;;;24.96;29.42;99894.78;5058436;28;1902;-20
2023/03/10 05:07:09;;;;;;;;;;;;;;;25.72;28.00;99891.84;5058967;28;1433;-19
2023/03/10 05:09:42;;;;;;;;;;;;;;;26.09;27.32;99889.00;5063948;28;1111;-19
2023/03/10 05:12:08;;;;;;;;;;;;;;;26.31;26.94;99900.53;5052311;28;1226;-19
2023/03/10 05:14:35;;;;;;;;;;;;;;;26.57;26.36;99893.66;5038850;28;1219;-20
2023/03/10 05:17:01;;;;;;;;;;;;;;;26.69;26.54;99890.41;5052973;28;1107;-20
2023/03/10 05:19:28;;;;;;;;;;;;;;;26.68;26.01;99896.81;5050560;28;1480;-20
2023/03/10 05:21:55;;;;;;;;;;;;;;;26.55;26.25;99906.50;5063063;28;1226;-19
2023/03/10 05:24:21;;;;;;;;;;;;;;;26.45;26.60;99893.41;5058682;28;1987;-19
2023/03/10 05:26:47;;;;;;;;;;;;;;;26.46;27.01;99919.31;5058441;28;1190;-18
2023/03/10 05:29:12;;;;;;;;;;;;;;;26.52;26.96;99920.41;5058773;28;1271;-18
2023/03/10 05:31:43;;;;;;;;;;;;;;;26.56;26.68;99928.94;5058901;28;1111;-18
2023/03/10 05:34:14;;;;;;;;;;;;;;;26.51;26.93;99926.81;5070193;28;1193;-18
2023/03/10 05:36:40;;;;;;;;;;;;;;;26.44;27.14;99921.41;5076491;28;1125;-19
2023/03/10 05:39:08;;;;;;;;;;;;;;;26.08;27.48;99931.28;5071953;28;1143;-18
2023/03/10 05:41:38;;;;;;;;;;;;;;;26.08;27.52;99931.28;5058373;28;1107;-19
2023/03/10 05:44:04;;;;;;;;;;;;;;;25.84;27.95;99937.94;5058382;28;1159;-19
2023/03/10 05:46:31;;;;;;;;;;;;;;;25.88;27.91;99950.84;5046438;28;1977;-18
2023/03/10 05:48:57;;;;;;;;;;;;;;;26.15;27.63;99961.00;5056483;28;1154;-18
2023/03/10 05:51:24;;;;;;;;;;;;;;;26.05;27.80;99958.63;5058125;28;1380;-19
2023/03/10 05:53:50;;;;;;;;;;;;;;;25.83;28.11;99964.03;5058485;28;1215;-19
2023/03/10 05:56:20;;;;;;;;;;;;;;;25.72;28.35;99962.72;5048642;28;1304;-19
2023/03/10 05:58:50;;;;;;;;;;;;;;;26.08;27.42;99965.47;5065470;28;1286;-20
2023/03/10 06:01:18;;;;;;;;;;;;;;;26.25;27.61;99964.19;5047453;28;1295;-19
2023/03/10 06:03:44;;;;;;;;;;;;;;;26.31;27.19;99961.72;5075988;28;1083;-17
2023/03/10 06:06:09;;;;;;;;;;;;;;;26.35;27.90;99966.56;5075830;28;1965;-18
2023/03/10 06:08:35;;;;;;;;;;;;;;;26.60;26.96;99971.50;5076257;28;1123;-18
2023/03/10 06:11:00;;;;;;;;;;;;;;;26.65;27.05;99978.97;5065961;28;941;-18
2023/03/10 06:13:26;;;;;;;;;;;;;;;26.59;26.58;99977.91;5063025;28;1063;-18
2023/03/10 06:15:52;;;;;;;;;;;;;;;26.58;27.36;99987.03;5076006;28;1075;-18
2023/03/10 06:18:18;;;;;;;;;;;;;;;26.27;27.85;99981.00;5076040;28;1142;-18
2023/03/10 06:20:44;;;;;;;;;;;;;;;26.60;26.63;99978.75;5057962;28;1031;-18
2023/03/10 06:23:09;;;;;;;;;;;;;;;26.71;27.02;99986.28;5068160;28;944;-19
2023/03/10 06:25:35;;;;;;;;;;;;;;;26.57;27.16;99981.84;5075877;28;1967;-18
2023/03/10 06:28:01;;;;;;;;;;;;;;;26.69;27.17;99982.97;5075987;28;1063;-18
2023/03/10 06:30:26;;;;;;;;;;;;;;;26.70;27.19;99981.91;5083210;28;1186;-18
2023/03/10 06:32:52;;;;;;;;;;;;;;;26.68;26.94;99977.75;5051267;28;1050;-19
2023/03/10 06:35:17;;;;;;;;;;;;;;;26.73;27.24;99973.41;5084649;28;1085;-18
2023/03/10 06:37:43;;;;;;;;;;;;;;;26.58;27.06;99973.53;5056147;28;1306;-18
2023/03/10 06:40:11;;;;;;;;;;;;;;;26.52;26.97;99980.59;5055738;28;1222;-18
2023/03/10 06:42:37;;;;;;;;;;;;;;;26.51;27.21;99975.34;5037784;28;1352;-18
2023/03/10 06:45:03;;;;;;;;;;;;;;;26.38;27.47;99974.25;5068048;28;1910;-18
2023/03/10 06:47:29;;;;;;;;;;;;;;;26.29;27.48;99980.81;5075263;28;828;-19
2023/03/10 06:49:54;;;;;;;;;;;;;;;26.22;27.55;99978.06;5057450;28;1043;-18
2023/03/10 06:52:20;;;;;;;;;;;;;;;26.23;27.73;99990.50;5076265;28;1050;-18
2023/03/10 06:54:46;;;;;;;;;;;;;;;26.27;27.27;99978.31;5075111;28;1167;-18
2023/03/10 06:57:11;;;;;;;;;;;;;;;26.32;27.72;99976.88;5074919;28;1198;-18
2023/03/10 06:59:37;;;;;;;;;;;;;;;26.47;27.13;99984.88;5071237;28;883;-18
2023/03/10 07:02:02;;;;;;;;;;;;;;;26.62;27.59;99998.25;5066752;28;1113;-19
2023/03/10 07:04:28;;;;;;;;;;;;;;;26.59;27.74;99990.56;5077175;28;1910;-19
2023/03/10 07:06:53;;;;;;;;;;;;;;;26.64;28.13;99988.94;5079321;28;1109;-18
2023/03/10 07:09:19;;;;;;;;;;;;;;;26.78;27.94;99983.63;5079336;28;1051;-18
2023/03/10 07:11:45;;;;;;;;;;;;;;;26.78;28.01;99981.75;5080270;28;1139;-19
2023/03/10 07:14:10;;;;;;;;;;;;;;;26.54;27.71;99983.06;5059261;28;1242;-19
2023/03/10 07:16:37;;;;;;;;;;;;;;;26.27;28.03;99990.94;5059080;28;1222;-19
2023/03/10 07:19:03;;;;;;;;;;;;;;;26.26;28.12;99983.88;5060597;28;1420;-19
2023/03/10 07:21:29;;;;;;;;;;;;;;;26.36;28.48;99981.69;5065330;28;1245;-18
2023/03/10 07:23:54;;;;;;;;;;;;;;;26.44;28.47;99979.91;5066575;28;1225;-18
2023/03/10 07:26:20;;;;;;;;;;;;;;;26.47;28.34;99979.50;5050201;28;1915;-19
2023/03/10 07:28:45;;;;;;;;;;;;;;;26.39;27.95;99967.81;5058616;28;1242;-19
2023/03/10 07:31:11;;;;;;;;;;;;;;;26.71;27.09;99978.19;5058798;28;1215;-19
2023/03/10 07:33:37;;;;;;;;;;;;;;;26.88;26.97;99985.94;5066980;28;1051;-19
2023/03/10 07:36:06;;;;;;;;;;;;;;;26.82;26.45;99975.97;5063905;28;1130;-19
2023/03/10 07:38:32;;;;;;;;;;;;;;;26.86;26.74;99978.06;5063747;28;1047;-19
2023/03/10 07:40:58;;;;;;;;;;;;;;;26.80;26.75;99976.16;5058413;28;1301;-19
2023/03/10 07:43:23;;;;;;;;;;;;;;;26.81;26.56;99977.00;5077186;28;1264;-18
2023/03/10 07:45:49;;;;;;;;;;;;;;;26.78;26.26;99981.75;5078045;28;1981;-19
2023/03/10 07:48:15;;;;;;;;;;;;;;;26.83;26.97;99989.25;5058783;28;1313;-18
2023/03/10 07:50:40;;;;;;;;;;;;;;;26.90;26.84;99981.19;5072582;28;1102;-19
2023/03/10 07:53:06;;;;;;;;;;;;;;;26.95;26.69;99986.81;5078516;28;1074;-19
2023/03/10 07:55:31;;;;;;;;;;;;;;;26.88;26.53;99978.69;5078340;28;1058;-18
2023/03/10 07:57:59;;;;;;;;;;;;;;;27.01;27.26;99983.34;5080143;28;1125;-19
2023/03/10 08:00:25;;;;;;;;;;;;;;;26.63;28.09;99986.44;5057855;28;1142;-18
2023/03/10 08:02:50;;;;;;;;;;;;;;;26.69;28.08;99984.81;5062795;28;1059;-18
2023/03/10 08:05:16;;;;;;;;;;;;;;;26.74;27.24;99988.56;5065250;28;1973;-19
2023/03/10 08:07:42;;;;;;;;;;;;;;;26.76;26.89;99991.91;5077493;28;1073;-19
2023/03/10 08:10:08;;;;;;;;;;;;;;;26.65;26.92;99990.63;5081038;28;1041;-19
2023/03/10 08:12:33;;;;;;;;;;;;;;;26.69;27.24;99985.66;5071381;28;1149;-19
2023/03/10 08:14:59;;;;;;;;;;;;;;;26.67;26.50;99992.28;5059916;28;1414;-19
2023/03/10 08:17:29;;;;;;;;;;;;;;;26.66;27.03;99986.03;5077845;28;1066;-19
2023/03/10 08:19:56;;;;;;;;;;;;;;;26.68;27.01;99986.69;5077760;28;1079;-18
2023/03/10 08:22:21;;;;;;;;;;;;;;;26.76;26.92;99991.06;5080702;28;1177;-19
2023/03/10 08:24:47;;;;;;;;;;;;;;;26.91;26.62;99996.34;5077998;28;2314;-21
2023/03/10 08:27:13;;;;;;;;;;;;;;;26.93;26.91;99998.84;5077921;28;1161;-22
2023/03/10 08:29:38;;;;;;;;;;;;;;;26.98;26.57;99997.22;5077693;28;1051;-22
2023/03/10 08:32:04;;;;;;;;;;;;;;;27.00;26.43;99992.44;5077140;28;1058;-22
2023/03/10 08:34:33;;;;;;;;;;;;;;;26.91;26.78;99982.84;5074434;28;1115;-21
2023/03/10 08:36:59;;;;;;;;;;;;;;;26.84;26.45;99980.09;5078939;28;1078;-21
2023/03/10 08:39:25;;;;;;;;;;;;;;;26.72;26.82;99989.81;5064109;28;1360;-22
2023/03/10 08:41:51;;;;;;;;;;;;;;;26.80;26.46;99986.09;5077021;28;1080;-22
2023/03/10 08:44:17;;;;;;;;;;;;;;;26.80;27.04;99980.72;5059842;28;1963;-23
2023/03/10 08:46:43;;;;;;;;;;;;;;;26.80;26.53;99986.94;5082550;28;1121;-25
2023/03/10 08:49:09;;;;;;;;;;;;;;;26.80;27.02;99989.66;5084080;28;1042;-22
2023/03/10 08:51:35;;;;;;;;;;;;;;;26.95;26.39;99988.69;5063554;28;1115;-22
2023/03/10 08:54:00;;;;;;;;;;;;;;;26.89;26.83;99976.84;5077414;28;1148;-22
2023/03/10 08:56:26;;;;;;;;;;;;;;;26.87;26.66;99971.63;5077439;28;1151;-23
2023/03/10 08:58:57;;;;;;;;;;;;;;;26.88;26.76;99970.59;5082602;28;1047;-22
2023/03/10 09:01:24;;;;;;;;;;;;;;;27.07;26.49;99962.81;5057345;28;1179;-22
2023/03/10 09:03:49;;;;;;;;;;;;;;;26.96;26.83;99968.78;5057085;28;1249;-22
2023/03/10 09:06:15;;;;;;;;;;;;;;;26.99;26.82;99965.66;5064197;28;1921;-22
2023/03/10 09:08:40;;;;;;;;;;;;;;;26.88;26.91;99967.06;5076919;28;1135;-23
2023/03/10 09:11:06;;;;;;;;;;;;;;;26.84;26.91;99963.09;5075047;28;1100;-22
2023/03/10 09:13:32;;;;;;;;;;;;;;;26.82;26.85;99957.06;5064855;28;1027;-21
2023/03/10 09:15:57;;;;;;;;;;;;;;;26.78;26.64;99949.38;5076594;28;1108;-20
2023/03/10 09:18:23;;;;;;;;;;;;;;;26.86;26.74;99955.66;5076871;28;1010;-22
2023/03/10 09:20:48;;;;;;;;;;;;;;;27.00;26.59;99953.81;5076530;28;1194;-22
2023/03/10 09:23:14;;;;;;;;;;;;;;;27.09;26.59;99949.13;5067603;28;1257;-23
2023/03/10 09:25:40;;;;;;;;;;;;;;;26.98;27.06;99943.22;5060454;28;1921;-21
2023/03/10 09:28:08;;;;;;;;;;;;;;;27.03;26.80;99956.16;5056305;28;1198;-22
2023/03/10 09:30:36;;;;;;;;;;;;;;;26.98;26.81;99948.63;5059797;28;1250;-21
2023/03/10 09:33:05;;;;;;;;;;;;;;;27.00;26.69;99941.16;5076564;28;1023;-21
2023/03/10 09:35:30;;;;;;;;;;;;;;;27.11;26.84;99947.06;5077140;28;1237;-22
2023/03/10 09:37:56;;;;;;;;;;;;;;;27.02;26.84;99943.69;5067346;28;1163;-22
2023/03/10 09:40:22;;;;;;;;;;;;;;;26.96;26.68;99941.78;5076693;28;1233;-22
2023/03/10 09:42:48;;;;;;;;;;;;;;;26.76;27.11;99942.50;5087055;28;1124;-22
2023/03/10 09:45:19;;;;;;;;;;;;;;;26.84;26.88;99939.63;5060963;28;1914;-21
2023/03/10 09:48:05;;;;;;;;;;;;;;;26.88;27.18;99932.81;5060273;28;1200;-21
2023/03/10 09:50:41;;;;;;;;;;;;;;;26.87;26.78;99917.66;5063780;28;1019;-21
2023/03/10 09:53:30;;;;;;;;;;;;;;;26.60;26.93;99906.75;5058185;28;1194;-21
2023/03/10 09:55:55;;;;;;;;;;;;;;;26.68;27.07;99911.13;5031036;28;1620;-21
2023/03/10 09:58:53;;;;;;;;;;;;;;;26.74;26.95;99915.72;5069544;28;1078;-21
2023/03/10 10:01:20;;;;;;;;;;;;;;;26.72;27.08;99911.56;5017439;28;1239;-22
2023/03/10 10:04:18;;;;;;;;;;;;;;;26.78;26.91;99913.47;5057864;28;1066;-22
2023/03/10 10:06:45;;;;;;;;;;;;;;;26.74;26.67;99909.50;5011576;28;1180;-21
2023/03/10 10:09:31;;;;;;;;;;;;;;;26.74;26.96;99914.91;5073040;28;1105;-20
2023/03/10 10:11:58;;;;;;;;;;;;;;;26.76;27.06;99910.97;5067396;28;1030;-22
2023/03/10 10:14:24;;;;;;;;;;;;;;;26.82;27.09;99906.66;5043802;28;1297;-21
2023/03/10 10:17:05;;;;;;;;;;;;;;;26.86;26.71;99898.97;5055517;28;1235;-22
2023/03/10 10:19:31;;;;;;;;;;;;;;;26.76;26.62;99886.69;5044918;28;1254;-23
2023/03/10 10:22:06;;;;;;;;;;;;;;;26.74;26.58;99886.03;5075863;28;1249;-22
2023/03/10 10:24:31;;;;;;;;;;;;;;;26.84;26.31;99887.56;5072792;28;1980;-23
2023/03/10 10:26:57;;;;;;;;;;;;;;;26.82;26.43;99882.34;5037657;28;1301;-24
2023/03/10 10:29:28;;;;;;;;;;;;;;;26.85;25.77;99881.09;5064503;28;1075;-21
2023/03/10 10:32:10;;;;;;;;;;;;;;;26.66;26.60;99875.44;5058232;28;1213;-24
2023/03/10 10:34:36;;;;;;;;;;;;;;;26.62;26.70;99866.09;5075929;28;1177;-23
2023/03/10 10:37:02;;;;;;;;;;;;;;;26.69;27.00;99866.13;5083891;28;1201;-22
2023/03/10 10:39:36;;;;;;;;;;;;;;;26.83;26.28;99875.91;5059172;28;1257;-22
2023/03/10 10:42:27;;;;;;;;;;;;;;;26.83;26.37;99867.81;5059396;28;1186;-22
2023/03/10 10:44:54;;;;;;;;;;;;;;;26.80;26.27;99864.69;5073212;28;1906;-22
2023/03/10 10:47:24;;;;;;;;;;;;;;;26.83;26.07;99856.19;5081844;28;1144;-23
2023/03/10 10:49:50;;;;;;;;;;;;;;;26.85;26.07;99854.97;5081478;28;1108;-23
2023/03/10 10:52:22;;;;;;;;;;;;;;;26.81;26.33;99855.59;5079509;28;1071;-23
2023/03/10 10:54:52;;;;;;;;;;;;;;;26.81;26.07;99845.59;5076741;28;1218;-23
2023/03/10 10:57:31;;;;;;;;;;;;;;;27.03;25.56;99829.28;5050586;28;1139;-23
2023/03/10 11:00:32;;;;;;;;;;;;;;;27.03;25.81;99826.59;5075168;28;1139;-21
2023/03/10 11:02:58;;;;;;;;;;;;;;;27.04;26.22;99839.06;4978189;28;1189;-25
2023/03/10 11:05:24;;;;;;;;;;;;;;;27.07;25.61;99833.25;5044566;28;1914;-22
2023/03/10 11:07:50;;;;;;;;;;;;;;;27.09;25.96;99835.75;5078943;28;1158;-22
2023/03/10 11:10:17;;;;;;;;;;;;;;;27.06;25.93;99834.28;5078866;28;1072;-22
2023/03/10 11:12:59;;;;;;;;;;;;;;;27.01;26.15;99834.03;5081395;28;860;-22
2023/03/10 11:15:28;;;;;;;;;;;;;;;26.97;25.88;99828.22;5078563;28;1063;-22
2023/03/10 11:18:09;;;;;;;;;;;;;;;27.04;26.50;99812.06;5079120;28;1178;-22
2023/03/10 11:20:52;;;;;;;;;;;;;;;27.05;26.38;99813.72;5060828;28;1121;-24
2023/03/10 11:23:40;;;;;;;;;;;;;;;27.02;25.98;99785.28;5061203;28;1108;-22
2023/03/10 11:26:17;;;;;;;;;;;;;;;26.88;26.54;99797.88;5058166;28;1905;-22
2023/03/10 11:28:52;;;;;;;;;;;;;;;26.94;26.55;99798.94;5046473;28;1176;-22
2023/03/10 11:31:33;;;;;;;;;;;;;;;26.97;26.47;99795.00;5060967;28;1280;-22
2023/03/10 11:34:04;;;;;;;;;;;;;;;27.02;26.50;99790.69;5059318;28;1195;-21
2023/03/10 11:36:48;;;;;;;;;;;;;;;27.06;26.26;99791.09;5080959;28;1043;-22
2023/03/10 11:39:25;;;;;;;;;;;;;;;27.04;26.46;99789.63;5073213;28;1106;-22
2023/03/10 11:42:02;;;;;;;;;;;;;;;27.02;26.19;99788.00;5060854;28;1163;-21
2023/03/10 11:44:30;;;;;;;;;;;;;;;26.97;26.40;99803.09;5059172;28;1914;-22
2023/03/10 11:46:59;;;;;;;;;;;;;;;26.92;27.19;99792.91;5060267;28;1091;-22
2023/03/10 11:49:26;;;;;;;;;;;;;;;27.00;26.96;99783.78;5079472;28;1115;-24
2023/03/10 11:51:54;;;;;;;;;;;;;;;27.09;26.30;99776.34;5053778;28;1059;-23
2023/03/10 11:54:20;;;;;;;;;;;;;;;27.08;26.31;99771.97;5090218;28;1109;-22
2023/03/10 11:56:46;;;;;;;;;;;;;;;27.06;26.69;99758.69;5068985;28;1173;-22
2023/03/10 11:59:13;;;;;;;;;;;;;;;27.07;26.16;99764.94;5071559;28;1222;-24
2023/03/10 12:01:43;;;;;;;;;;;;;;;27.03;26.75;99767.22;5074406;28;1063;-22
2023/03/10 12:04:38;;;;;;;;;;;;;;;27.03;26.44;99751.00;5056580;28;1107;-23
2023/03/10 12:07:03;;;;;;;;;;;;;;;27.07;26.36;99746.88;5004040;28;1298;-24
2023/03/10 12:09:36;;;;;;;;;;;;;;;27.05;26.45;99748.09;5076439;28;1050;-23
2023/03/10 12:12:02;;;;;;;;;;;;;;;26.84;26.96;99747.25;5069128;28;1028;-24
2023/03/10 12:14:28;;;;;;;;;;;;;;;26.86;27.06;99740.59;5082336;28;1071;-23
2023/03/10 12:16:53;;;;;;;;;;;;;;;26.88;26.74;99741.22;5077855;28;1134;-25
2023/03/10 12:19:19;;;;;;;;;;;;;;;26.96;26.40;99732.09;5059974;28;1154;-23
2023/03/10 12:21:46;;;;;;;;;;;;;;;27.02;26.49;99725.06;5077661;28;1063;-22
2023/03/10 12:24:30;;;;;;;;;;;;;;;27.09;26.44;99722.38;5061426;28;1147;-22
2023/03/10 12:26:57;;;;;;;;;;;;;;;27.11;26.84;99712.22;5077675;28;1114;-25
2023/03/10 12:29:30;;;;;;;;;;;;;;;27.14;26.45;99709.91;5077850;28;1087;-22
2023/03/10 12:31:55;;;;;;;;;;;;;;;27.19;26.38;99703.91;5060001;28;1141;-22
2023/03/10 12:34:22;;;;;;;;;;;;;;;27.16;26.25;99701.59;5077193;28;1074;-24
2023/03/10 12:36:54;;;;;;;;;;;;;;;27.04;26.48;99700.56;5084860;28;1063;-24
2023/03/10 12:39:38;;;;;;;;;;;;;;;27.07;26.69;99708.25;5058467;28;1031;-23
2023/03/10 12:42:22;;;;;;;;;;;;;;;27.04;26.33;99695.16;5071963;28;1135;-23
2023/03/10 12:44:55;;;;;;;;;;;;;;;27.03;26.51;99691.63;5076845;28;1898;-25
2023/03/10 12:47:32;;;;;;;;;;;;;;;27.06;26.37;99699.31;5059156;28;1134;-22
2023/03/10 12:50:00;;;;;;;;;;;;;;;26.99;26.77;99691.19;5063421;28;872;-23
2023/03/10 12:52:28;;;;;;;;;;;;;;;27.04;26.48;99687.06;5077266;28;1106;-23
2023/03/10 12:54:54;;;;;;;;;;;;;;;27.05;26.31;99680.63;5076920;28;1173;-23
2023/03/10 12:57:24;;;;;;;;;;;;;;;27.09;26.30;99671.09;5077508;28;1225;-23
2023/03/10 12:59:57;;;;;;;;;;;;;;;26.99;26.73;99658.00;5058624;28;1063;-22
2023/03/10 13:02:32;;;;;;;;;;;;;;;26.99;26.37;99653.41;5076206;28;976;-22